x

Canaveral 20 Nm East Of Cape Canaveral, Fl (41009) Wave Buoy

10:50pm - Mon 29th Jun 2015 All times are EDT. -4 hours from GMT.

  • Sig Wave height 2.0ft
  • Swell Direction
  • Peak Period 8s
  • Average Period 4s
  • Wind
    16mph, 18mph gusts
  • Sea Temp 81°f
  • Air Temp 79°f
  • Sea Pressure 1018.4mb
  • Canaveral 20 Nm East Of Cape Canaveral, Fl
  • Canaveral 20 Nm East Of Cape Canaveral, Fl

More Historic Weather Station data

Upgrade to MSW Pro to gain access to the past 30 days of data for over 8000 Wavebouys and Weather Stations around the globe.

Join Pro

Comparision Forecast

View Surf forecast
   
Mon 06/29 10:50pm 2ft 8s 4s 16 18 mph 1018.4mb 81f 79f
10:20pm  -   -   -  16 20 mph 1018.2mb 81f 78f
9:50pm 2ft 8s 4s 16 20 mph 1018.1mb 81f 78f
9:20pm  -   -   -  16 20 mph 1017.9mb 81f 78f
8:50pm 2ft 8s 4s 13 16 mph 1018mb 81f 78f
8:20pm  -   -   -  11 13 mph 1018.1mb 82f 78f
7:50pm 2ft 8s 4s 11 13 mph 1018.4mb 82f 78f
7:20pm  -   -   -  9 11 mph 1018.4mb 82f 78f
6:50pm 1.6ft 8s 4s 9 13 mph 1018.5mb 82f 78f
6:20pm  -   -   -  11 13 mph 1018.2mb 82f 78f
5:50pm 2ft 8s 5s 13 16 mph 1017.8mb 82f 78f
5:20pm  -   -   -  13 16 mph 1018.3mb 82f 78f
3:50pm 1.6ft 8s 6s 7 9 mph 1018.8mb 82f 76f
3:20pm  -   -   -  7
mph
1019mb 82f 77f
2:50pm 1.6ft 8s 5s 7 9 mph 1018.6mb 82f 75f
2:20pm  -   -   -  9 13 mph 1019.4mb 82f 74f
1:50pm 2ft 9s 5s 9 11 mph 1018.1mb 83f 82f
1:20pm  -   -   -  9 11 mph 1018.5mb 83f 82f
12:50pm 1.6ft 9s 5s 7 9 mph 1018.8mb 83f 82f
12:20pm  -   -   -  7 9 mph 1018.4mb 82f 81f
11:50am 1.6ft 8s 4s 9
mph
1018.3mb 82f 81f
11:20am  -   -   -  9 11 mph 1018.4mb 82f 81f
10:50am 1.6ft 8s 4s 9 11 mph 1018.6mb 82f 81f
10:20am  -   -   -  9 11 mph 1018.7mb 82f 80f
9:50am 1.6ft 8s 4s 9 11 mph 1018.7mb 82f 80f
9:20am  -   -   -  9 13 mph 1018.5mb 82f 80f
8:50am 1.6ft 8s 4s 11 13 mph 1018.4mb 81f 80f
8:20am  -   -   -  11 13 mph 1017.9mb 81f 80f
7:50am 1.6ft 9s 4s 11 16 mph 1017.5mb 81f 80f
7:20am  -   -   -  11 13 mph 1017mb 81f 80f
6:50am 1.6ft 9s 4s 13
mph
1016.8mb 81f 80f
6:20am  -   -   -  11 13 mph 1016.7mb 81f 80f
5:50am 2ft 8s 4s 11 13 mph 1016.5mb 82f 80f
5:20am  -   -   -  9 11 mph 1016.4mb 82f 81f
4:50am 2ft 8s 4s 9 11 mph 1016.3mb 82f 81f
4:20am  -   -   -  11
mph
1016.4mb 82f 81f
3:50am 2.5ft 7s 4s 11 13 mph 1016.5mb 82f 81f
3:20am  -   -   -  13
mph
1016.6mb 82f 81f
2:50am 2.5ft 4s 4s 11 13 mph 1016.9mb 82f 81f
2:20am  -   -   -  13 16 mph 1016.9mb 82f 82f
1:50am 2.5ft 4s 4s 13
mph
1017mb 82f 82f
1:20am  -   -   -  11 13 mph 1017.1mb 82f 82f
12:50am 2.5ft 8s 4s 9 11 mph 1017.4mb 82f 82f
12:20am  -   -   -  11
mph
1017.7mb 82f 83f
Sun 06/28 11:50pm 2.5ft 4s 4s 11 13 mph 1017.8mb 82f 83f
11:20pm  -   -   -  13 16 mph 1017.8mb 82f 83f
10:50pm 3ft 4s 4s 13 16 mph 1017.4mb 82f 83f
10:20pm  -   -   -  13 16 mph 1017mb 82f 82f
9:50pm 3ft 4s 4s 16 20 mph 1016.7mb 82f 82f
9:20pm  -   -   -  18 20 mph 1016.7mb 82f 83f
8:50pm 2.5ft 3s 4s 18 22 mph 1016.6mb 82f 83f
8:20pm  -   -   -  16 18 mph 1016.6mb 82f 83f
7:50pm 2.5ft 8s 4s 16
mph
1016.6mb 82f 83f
7:20pm  -   -   -  13 16 mph 1016.2mb 82f 83f
6:20pm  -   -   -  18 20 mph 1016.2mb 82f 83f
5:50pm 2.5ft 3s 3s 18 20 mph 1015.8mb 82f 83f
5:20pm  -   -   -  20 22 mph 1015.7mb 82f 83f
4:50pm 2ft 8s 4s 16 18 mph 1015.9mb 83f 83f
4:20pm  -   -   -  16 20 mph 1016.1mb 82f 83f
3:50pm 2ft 9s 4s 16 20 mph 1016.3mb 83f 83f
3:20pm  -   -   -  13 16 mph 1016.3mb 83f 82f
2:50pm 1.6ft 9s 4s 13 16 mph 1016.6mb 83f 82f
2:20pm  -   -   -  16 18 mph 1016.7mb 82f 82f
1:50pm 1.6ft 8s 4s 11 13 mph 1017.2mb 82f 82f
1:20pm  -   -   -  13
mph
1017.3mb 82f 82f
12:50pm 1.6ft 8s 5s 11 13 mph 1017.8mb 82f 82f
12:20pm  -   -   -  11 13 mph 1018mb 82f 81f
11:50am 1.6ft 9s 4s 11
mph
1018.3mb 82f 81f
11:20am  -   -   -  11
mph
1018.3mb 82f 81f
10:50am 2ft 9s 4s 9 11 mph 1018.3mb 82f 81f
10:20am  -   -   -  9 11 mph 1018.3mb 82f 81f
9:50am 2ft 8s 4s 11
mph
1018.3mb 82f 80f
9:20am  -   -   -  11 13 mph 1018.2mb 82f 80f
8:50am 2ft 8s 4s 11 13 mph 1017.8mb 82f 80f
8:20am  -   -   -  13 16 mph 1017.3mb 82f 80f
7:50am 2ft 8s 4s 13
mph
1017mb 82f 81f
7:20am  -   -   -  13 16 mph 1016.6mb 82f 81f
6:50am 2ft 4s 4s 13
mph
1016.5mb 82f 81f
6:20am  -   -   -  11 13 mph 1016.1mb 82f 81f
5:50am 2ft 4s 4s 9 11 mph 1015.9mb 82f 81f
5:20am  -   -   -  9 11 mph 1015.9mb 82f 81f
4:50am 2.5ft 4s 4s 9 11 mph 1015.7mb 82f 81f
4:20am  -   -   -  9 11 mph 1015.7mb 82f 82f
3:50am 2.5ft 4s 4s 11
mph
1015.8mb 82f 82f
3:20am  -   -   -  11 13 mph 1015.8mb 82f 82f
2:50am 3ft 5s 4s 13 16 mph 1016.1mb 82f 82f
2:20am  -   -   -  16 18 mph 1016.6mb 82f 82f
1:50am 3ft 5s 4s 16 18 mph 1016.8mb 82f 82f
1:20am  -   -   -  16 18 mph 1016.7mb 82f 82f
12:50am 2.5ft 5s 4s 16 20 mph 1017mb 83f 82f
12:20am  -   -   -  13 18 mph 1016.8mb 83f 83f
Sat 06/27 11:50pm 2.5ft 4s 4s 16 18 mph 1017mb 83f 83f
11:20pm  -   -   -  13 16 mph 1017mb 83f 83f
10:50pm 3ft 4s 4s 13 16 mph 1016.7mb 83f 83f
10:20pm  -   -   -  13 16 mph 1016.7mb 83f 83f
9:50pm 3.5ft 4s 4s 16 20 mph 1016.5mb 83f 83f
9:20pm  -   -   -  20 22 mph 1016.3mb 83f 80f
8:50pm 3ft 4s 4s 20 29 mph 1016.7mb 83f 81f
8:20pm  -   -   -  22 25 mph 1016.9mb 83f 84f
7:50pm 2.5ft 4s 4s 16 18 mph 1016.7mb 83f 84f
7:20pm  -   -   -  18 20 mph 1016.4mb 83f 84f
6:50pm 2.5ft 3s 4s 20 25 mph 1015.8mb 83f 84f
6:20pm  -   -   -  22 25 mph 1015.5mb 84f 84f
5:50pm 2ft 9s 3s 20 25 mph 1015.5mb 84f 84f
5:20pm  -   -   -  18 20 mph 1015.7mb 84f 84f
4:50pm 1.6ft 9s 4s 18 20 mph 1015.6mb 84f 84f
4:20pm  -   -   -  16 18 mph 1016.1mb 84f 83f
3:50pm 1.3ft 9s 4s 13 16 mph 1016.4mb 84f 83f
3:20pm  -   -   -  13 16 mph 1016.6mb 84f 83f
2:50pm 1.3ft 8s 4s 13
mph
1017.1mb 84f 83f
2:20pm  -   -   -  11 13 mph 1017.2mb 84f 83f
1:50pm 1.6ft 9s 5s 11 13 mph 1017.7mb 84f 82f
1:20pm  -   -   -  9 11 mph 1017.7mb 84f 82f
12:50pm 1.3ft 9s 4s 9 11 mph 1018.2mb 83f 82f
12:20pm  -   -   -  9 11 mph 1018.8mb 83f 82f
11:50am 1.6ft 9s 5s 9 11 mph 1018.9mb 83f 82f
11:20am  -   -   -  9
mph
1018.9mb 83f 81f
10:50am 1.6ft 8s 4s 9 11 mph 1019mb 83f 81f
10:20am  -   -   -  11
mph
1019.1mb 83f 81f
9:50am 1.6ft 8s 5s 9 11 mph 1018.8mb 83f 81f
9:20am  -   -   -  9 11 mph 1018.8mb 83f 81f
8:50am 1.6ft 9s 5s 7
mph
1018.6mb 83f 81f
8:20am  -   -   -  7 9 mph 1018.2mb 83f 81f
7:50am 2ft 9s 4s 7 9 mph 1017.8mb 83f 81f
7:20am  -   -   -  9
mph
1017.6mb 83f 81f
6:50am 2ft 8s 4s 7 9 mph 1017.3mb 83f 81f
6:20am  -   -   -  9 11 mph 1017.2mb 83f 81f
5:50am 2ft 9s 4s 11 13 mph 1017mb 83f 81f
5:20am  -   -   -  13 16 mph 1016.6mb 83f 81f
4:50am 2ft 8s 4s 13 16 mph 1016.5mb 83f 82f
4:20am  -   -   -  13 16 mph 1016.6mb 83f 82f
3:50am 2.5ft 9s 4s 11 13 mph 1016.8mb 83f 82f
3:20am  -   -   -  13 16 mph 1017.2mb 83f 82f
2:50am 2.5ft 9s 4s 13 16 mph 1017.4mb 83f 83f
2:20am  -   -   -  13 18 mph 1017.6mb 83f 83f
1:50am 2ft 9s 4s 16 20 mph 1017.5mb 83f 82f
1:20am  -   -   -  16 18 mph 1017.8mb 83f 83f
12:50am 2.5ft 9s 4s 16 18 mph 1018.1mb 83f 82f
12:20am  -   -   -  13 16 mph 1018.2mb 83f 82f
Fri 06/26 11:50pm 2ft 9s 4s 13 16 mph 1018.3mb 83f 82f
11:20pm  -   -   -  16 18 mph 1018.2mb 83f 82f
10:50pm 2ft 8s 4s 16 18 mph 1018.3mb 83f 82f
10:20pm  -   -   -  13 16 mph 1018.2mb 84f 82f
9:50pm 2.5ft 9s 4s 16 18 mph 1017.8mb 84f 83f
9:20pm  -   -   -  16 18 mph 1017.6mb 84f 83f
8:50pm 2ft 8s 4s 16 18 mph 1017.3mb 84f 83f
8:20pm  -   -   -  13 18 mph 1017.8mb 84f 83f
7:50pm 1.6ft 9s 4s 13 16 mph 1018.1mb 84f 84f
7:20pm  -   -   -  2 4 mph 1017.9mb 84f 82f
6:50pm 1.6ft 9s 5s 4
mph
1017.9mb 84f 82f
6:20pm  -   -   -  4 7 mph 1018.1mb 84f 81f
5:50pm 1.6ft 9s 5s 9 11 mph 1018.2mb 84f 84f
5:20pm  -   -   -  9 11 mph 1018.1mb 84f 84f
4:50pm 1.6ft 9s 5s 11
mph
1017.9mb 84f 84f
4:20pm  -   -   -  11 13 mph 1018.1mb 84f 83f
3:50pm 1.6ft 9s 6s 11 13 mph 1018mb 85f 83f
3:20pm  -   -   -  9 11 mph 1018.3mb 84f 83f
2:50pm 1.6ft 8s 5s 9 11 mph 1018.6mb 84f 83f
2:20pm  -   -   -  7 9 mph 1018.9mb 84f 82f
1:50pm 1.6ft 9s 6s 7 9 mph 1019.3mb 84f 82f
1:20pm  -   -   -  9
mph
1019.6mb 84f 82f
12:50pm 1.6ft 9s 6s 9
mph
1019.8mb 84f 82f
12:20pm  -   -   -  9 11 mph 1020.1mb 84f 82f
11:50am 1.6ft 8s 6s 9 11 mph 1020.1mb 83f 82f
11:20am  -   -   -  9 11 mph 1020mb 83f 82f
10:50am 2ft 9s 7s 9 11 mph 1020mb 83f 82f
10:20am  -   -   -  9
mph
1019.9mb 83f 82f
9:50am 1.6ft 9s 6s 7
mph
1020mb 83f 81f
9:20am  -   -   -  4 7 mph 1020.2mb 83f 81f
8:50am 2ft 8s 7s 4
mph
1019.8mb 83f 81f
8:20am  -   -   -  2 4 mph 1019.8mb 83f 81f
7:50am 2ft 8s 7s 2 4 mph 1019.7mb 83f 81f
7:20am  -   -   -  4 7 mph 1019.2mb 83f 81f
6:50am 1.6ft 9s 7s 7
mph
1018.8mb 83f 81f
6:20am  -   -   -  4 7 mph 1018.7mb 83f 81f
5:50am 1.6ft 9s 7s 7
mph
1018mb 83f 81f
5:20am  -   -   -  9 11 mph 1017.8mb 83f 81f
4:50am 2ft 9s 7s 9 11 mph 1017.5mb 83f 81f
4:20am  -   -   -  9 11 mph 1017.5mb 83f 81f